Time;durP1;ratioP1;P1;durP2;ratioP2;P2;SDS_P1;SDS_P2;PMS_P1;PMS_P2;Temp;Humidity;BMP_temperature;BMP_pressure;BME280_temperature;BME280_humidity;BME280_pressure;Samples;Min_cycle;Max_cycle;Signal;HPM_P1;HPM_P2
2022/11/24 00:00:26;;;;;;;17.13;6.55;;;7.10;99.90;;;;;;4956524;28;20063;-67
2022/11/24 00:02:52;;;;;;;25.42;8.45;;;7.10;99.90;;;;;;4956483;28;20128;-67
2022/11/24 00:05:18;;;;;;;25.40;7.53;;;7.10;99.90;;;;;;4973739;28;20058;-67
2022/11/24 00:07:43;;;;;;;19.88;7.82;;;7.10;99.90;;;;;;4956294;28;20690;-67
2022/11/24 00:10:09;;;;;;;26.35;8.52;;;7.00;99.90;;;;;;4973387;28;20114;-67
2022/11/24 00:12:35;;;;;;;17.10;5.80;;;7.10;99.90;;;;;;4952985;29;20059;-67
2022/11/24 00:15:01;;;;;;;24.10;7.03;;;7.00;99.90;;;;;;4944830;29;20049;-67
2022/11/24 00:17:28;;;;;;;20.58;6.45;;;7.10;99.90;;;;;;4954588;29;20494;-67
2022/11/24 00:19:54;;;;;;;20.02;7.70;;;7.10;99.90;;;;;;4953298;28;20055;-67
2022/11/24 00:22:20;;;;;;;24.75;7.43;;;7.10;99.90;;;;;;4952137;29;20094;-67
2022/11/24 00:24:45;;;;;;;26.20;7.15;;;7.10;99.90;;;;;;4953393;28;20083;-67
2022/11/24 00:27:11;;;;;;;29.67;8.05;;;7.10;99.90;;;;;;4954036;28;20118;-67
2022/11/24 00:29:37;;;;;;;16.70;5.68;;;7.10;99.90;;;;;;4954380;29;20039;-67
2022/11/24 00:32:05;;;;;;;21.13;6.30;;;7.00;99.90;;;;;;4953749;28;20082;-67
2022/11/24 00:34:31;;;;;;;17.05;6.18;;;7.00;99.90;;;;;;4951825;29;20615;-67
2022/11/24 00:36:57;;;;;;;19.75;6.80;;;7.00;99.90;;;;;;4953260;29;20393;-67
2022/11/24 00:39:23;;;;;;;24.98;6.45;;;7.00;99.90;;;;;;4953435;28;20043;-67
2022/11/24 00:41:48;;;;;;;21.75;6.85;;;7.00;99.90;;;;;;4952732;29;20059;-67
2022/11/24 00:44:14;;;;;;;18.98;7.03;;;7.00;99.90;;;;;;4954270;29;20129;-67
2022/11/24 00:46:40;;;;;;;27.35;7.72;;;7.10;99.90;;;;;;4953097;29;20043;-66
2022/11/24 00:49:06;;;;;;;25.00;6.07;;;7.10;99.90;;;;;;4952614;29;20130;-67
2022/11/24 00:51:32;;;;;;;14.60;5.05;;;7.10;99.90;;;;;;4954084;28;20050;-67
2022/11/24 00:53:59;;;;;;;16.23;5.15;;;7.10;99.90;;;;;;4953764;29;20043;-67
2022/11/24 00:56:26;;;;;;;22.42;6.20;;;7.20;99.90;;;;;;4954138;28;20469;-67
2022/11/24 00:58:52;;;;;;;20.05;6.35;;;7.20;99.90;;;;;;4953875;28;20050;-67
2022/11/24 01:01:21;;;;;;;19.02;6.38;;;7.30;99.90;;;;;;4936643;29;20047;-67
2022/11/24 01:03:47;;;;;;;19.55;6.10;;;7.40;99.90;;;;;;4952734;29;20035;-67
2022/11/24 01:06:19;;;;;;;23.98;5.53;;;7.40;99.90;;;;;;4954066;28;20027;-67
2022/11/24 01:08:45;;;;;;;20.40;5.50;;;7.50;99.90;;;;;;4936083;29;20501;-67
2022/11/24 01:11:22;;;;;;;18.73;4.13;;;7.50;99.90;;;;;;4952779;29;20647;-68
2022/11/24 01:13:52;;;;;;;19.80;4.47;;;7.60;99.90;;;;;;4952477;29;20553;-68
2022/11/24 01:16:20;;;;;;;17.75;4.78;;;7.70;99.90;;;;;;4953675;28;20040;-68
2022/11/24 01:18:46;;;;;;;17.05;5.32;;;7.70;99.90;;;;;;4952386;29;20043;-67
2022/11/24 01:21:13;;;;;;;11.85;3.60;;;7.70;99.90;;;;;;4952263;29;20054;-66
2022/11/24 01:23:38;;;;;;;23.10;5.20;;;7.70;99.90;;;;;;4951772;29;20051;-67
2022/11/24 01:26:10;;;;;;;12.85;4.30;;;7.70;99.90;;;;;;4953624;28;20127;-67
2022/11/24 01:28:35;;;;;;;16.65;4.53;;;7.60;99.90;;;;;;4952446;29;20117;-67
2022/11/24 01:31:04;;;;;;;25.92;5.45;;;7.60;99.90;;;;;;4951996;29;20553;-67
2022/11/24 01:33:30;;;;;;;19.05;4.05;;;7.60;99.90;;;;;;4952301;29;20078;-67
2022/11/24 01:35:57;;;;;;;18.77;4.15;;;7.50;99.90;;;;;;4951366;29;20050;-67
2022/11/24 01:38:24;;;;;;;19.92;4.53;;;7.50;99.90;;;;;;4952219;29;20074;-67
2022/11/24 01:41:02;;;;;;;25.20;5.70;;;7.50;99.90;;;;;;4953299;28;20039;-67
2022/11/24 01:43:28;;;;;;;24.27;4.25;;;7.50;99.90;;;;;;4952938;28;20036;-67
2022/11/24 01:45:54;;;;;;;19.85;4.43;;;7.50;99.90;;;;;;4953132;28;20043;-67
2022/11/24 01:48:28;;;;;;;21.73;5.05;;;7.50;99.90;;;;;;4951527;29;20132;-68
2022/11/24 01:51:18;;;;;;;16.55;4.10;;;7.40;99.90;;;;;;4951135;29;20051;-67
2022/11/24 01:53:50;;;;;;;10.90;3.72;;;7.50;99.90;;;;;;4952873;29;20039;-67
2022/11/24 01:56:17;;;;;;;19.08;4.00;;;7.50;99.90;;;;;;4953066;28;20489;-68
2022/11/24 01:58:46;;;;;;;15.63;3.13;;;7.50;99.90;;;;;;4953091;28;20035;-67
2022/11/24 02:01:12;;;;;;;18.38;3.78;;;7.60;99.90;;;;;;4951480;29;20051;-68
2022/11/24 02:03:40;;;;;;;27.30;5.47;;;7.60;99.90;;;;;;4952963;29;20031;-67
2022/11/24 02:06:09;;;;;;;17.52;4.65;;;7.60;99.90;;;;;;4952367;28;20039;-67
2022/11/24 02:08:47;;;;;;;12.80;3.83;;;7.70;99.90;;;;;;4952872;28;20050;-67
2022/11/24 02:11:13;;;;;;;12.25;3.65;;;7.70;99.90;;;;;;4953164;28;20039;-68
2022/11/24 02:13:42;;;;;;;19.75;5.30;;;7.70;99.90;;;;;;4971394;28;20043;-67
2022/11/24 02:16:10;;;;;;;16.55;4.80;;;7.80;99.90;;;;;;4971187;28;20046;-67
2022/11/24 02:18:38;;;;;;;12.85;3.97;;;7.80;99.90;;;;;;4953806;28;20489;-68
2022/11/24 02:21:05;;;;;;;17.25;3.95;;;7.80;99.90;;;;;;4953496;28;20170;-67
2022/11/24 02:23:34;;;;;;;15.85;3.90;;;7.90;99.90;;;;;;4971070;28;20035;-68
2022/11/24 02:26:25;;;;;;;20.13;3.50;;;7.90;99.90;;;;;;4970996;28;20039;-67
2022/11/24 02:28:51;;;;;;;18.67;4.50;;;8.00;99.90;;;;;;4971161;28;20162;-68
2022/11/24 02:31:17;;;;;;;14.45;3.72;;;8.00;99.90;;;;;;4970933;28;20078;-67
2022/11/24 02:33:43;;;;;;;18.17;3.38;;;8.00;99.90;;;;;;4970893;28;20043;-68
2022/11/24 02:36:09;;;;;;;14.00;3.97;;;8.00;99.90;;;;;;4970732;28;20097;-68
2022/11/24 02:38:35;;;;;;;15.13;3.85;;;8.00;99.90;;;;;;4970911;28;20043;-67
2022/11/24 02:41:06;;;;;;;20.08;3.95;;;8.10;99.90;;;;;;4970841;28;20119;-68
2022/11/24 02:43:38;;;;;;;19.30;3.88;;;8.00;99.90;;;;;;4953619;28;20039;-68
2022/11/24 02:46:04;;;;;;;18.33;4.07;;;8.10;99.90;;;;;;4970863;28;20039;-68
2022/11/24 02:48:30;;;;;;;22.52;6.57;;;8.00;99.90;;;;;;4970532;28;20178;-68
2022/11/24 02:50:55;;;;;;;15.63;3.90;;;8.00;99.90;;;;;;4937676;28;20130;-68
2022/11/24 02:53:21;;;;;;;18.42;3.70;;;8.00;99.90;;;;;;4970742;28;20041;-67
2022/11/24 02:55:47;;;;;;;11.18;3.40;;;8.00;99.90;;;;;;4953871;28;20043;-67
2022/11/24 02:58:13;;;;;;;18.80;4.80;;;8.00;99.90;;;;;;4974019;28;20062;-68
2022/11/24 03:00:39;;;;;;;20.98;5.78;;;7.90;99.90;;;;;;4956638;28;20096;-68
2022/11/24 03:03:05;;;;;;;12.35;4.22;;;7.80;99.90;;;;;;4973732;28;20117;-67
2022/11/24 03:05:31;;;;;;;17.83;4.65;;;7.80;99.90;;;;;;4956691;28;20034;-68
2022/11/24 03:07:57;;;;;;;19.00;3.75;;;7.80;99.90;;;;;;4974037;28;20034;-67
2022/11/24 03:10:23;;;;;;;22.45;5.35;;;7.70;99.90;;;;;;4940838;28;20043;-68
2022/11/24 03:12:49;;;;;;;12.90;3.95;;;7.70;99.90;;;;;;4909778;28;1379940;-68
2022/11/24 03:15:15;;;;;;;14.35;3.58;;;7.60;99.90;;;;;;4941807;28;20138;-68
2022/11/24 03:17:40;;;;;;;25.30;3.78;;;7.60;99.90;;;;;;4957272;28;20081;-68
2022/11/24 03:20:07;;;;;;;15.82;3.22;;;7.50;99.90;;;;;;4941598;28;20050;-67
2022/11/24 03:22:33;;;;;;;15.55;3.63;;;7.50;99.90;;;;;;4957522;28;20043;-68
2022/11/24 03:24:59;;;;;;;13.30;3.47;;;7.50;99.90;;;;;;4957729;28;20057;-68
2022/11/24 03:27:24;;;;;;;15.55;3.67;;;7.50;99.90;;;;;;4974752;28;20043;-68
2022/11/24 03:29:50;;;;;;;14.32;3.15;;;7.50;99.90;;;;;;4956743;28;20050;-68
2022/11/24 03:32:16;;;;;;;22.63;4.65;;;7.40;99.90;;;;;;4960762;28;20504;-68
2022/11/24 03:34:41;;;;;;;17.60;3.28;;;7.40;99.90;;;;;;4941610;28;20485;-68
2022/11/24 03:37:07;;;;;;;17.75;3.78;;;7.40;99.90;;;;;;4957303;28;20397;-68
2022/11/24 03:39:33;;;;;;;13.73;3.40;;;7.40;99.90;;;;;;4974613;28;20097;-68
2022/11/24 03:41:59;;;;;;;20.27;3.85;;;7.30;99.90;;;;;;4974454;28;20059;-68
2022/11/24 03:44:24;;;;;;;20.48;4.75;;;7.30;99.90;;;;;;4974594;28;20043;-68
2022/11/24 03:46:50;;;;;;;12.93;3.90;;;7.30;99.90;;;;;;4956738;28;20088;-68
2022/11/24 03:49:17;;;;;;;29.15;4.65;;;7.30;99.90;;;;;;4957198;28;20104;-68
2022/11/24 03:51:42;;;;;;;20.30;4.20;;;7.30;99.90;;;;;;4957047;28;20043;-68
2022/11/24 03:54:08;;;;;;;14.07;3.22;;;7.30;99.90;;;;;;4974399;28;20050;-68
2022/11/24 03:56:34;;;;;;;16.38;4.10;;;7.30;99.90;;;;;;4957058;28;20042;-68
2022/11/24 03:59:00;;;;;;;16.48;3.25;;;7.30;99.90;;;;;;4941082;28;20085;-68
2022/11/24 04:01:25;;;;;;;19.33;3.13;;;7.30;99.90;;;;;;4973995;28;20039;-68
2022/11/24 04:03:51;;;;;;;14.13;2.95;;;7.30;99.90;;;;;;4957231;28;20046;-68
2022/11/24 04:06:17;;;;;;;16.98;3.28;;;7.30;99.90;;;;;;4956940;28;20428;-68
2022/11/24 04:08:43;;;;;;;14.70;3.38;;;7.20;99.90;;;;;;4940877;28;20050;-68
2022/11/24 04:12:42;;;;;;;16.27;4.05;;;7.20;99.90;;;;;;4956946;28;20476;-68
2022/11/24 04:13:57;;;;;;;15.23;3.33;;;7.10;99.90;;;;;;4974172;28;20042;-68
2022/11/24 04:16:23;;;;;;;17.77;3.30;;;7.10;99.90;;;;;;4956610;28;20366;-69
2022/11/24 04:18:51;;;;;;;15.80;3.53;;;7.10;99.90;;;;;;4956663;28;20078;-68
2022/11/24 04:21:17;;;;;;;16.45;3.30;;;7.10;99.90;;;;;;4956752;28;20035;-68
2022/11/24 04:23:43;;;;;;;17.58;3.70;;;7.10;99.90;;;;;;4956549;28;20396;-68
2022/11/24 04:26:09;;;;;;;10.93;2.70;;;7.00;99.90;;;;;;4974012;28;20045;-68
2022/11/24 04:28:35;;;;;;;13.43;4.25;;;7.00;99.90;;;;;;4973813;28;20093;-68
2022/11/24 04:31:02;;;;;;;18.25;3.83;;;6.90;99.90;;;;;;4956256;28;20073;-68
2022/11/24 04:33:27;;;;;;;16.20;3.10;;;6.90;99.90;;;;;;4973823;28;20046;-69
2022/11/24 04:35:53;;;;;;;13.05;2.67;;;6.90;99.90;;;;;;4973715;28;20050;-68
2022/11/24 04:38:19;;;;;;;14.52;3.78;;;6.80;99.90;;;;;;4973678;28;20039;-68
2022/11/24 04:40:45;;;;;;;21.42;2.90;;;6.80;99.90;;;;;;4973828;28;20569;-68
2022/11/24 04:43:11;;;;;;;17.30;2.95;;;6.70;99.90;;;;;;4956238;28;20051;-67
2022/11/24 04:45:37;;;;;;;13.57;3.78;;;6.70;99.90;;;;;;4973213;28;20051;-68
2022/11/24 04:48:03;;;;;;;16.83;4.25;;;6.70;99.90;;;;;;4956172;28;20093;-68
2022/11/24 04:50:29;;;;;;;12.77;3.30;;;6.70;99.90;;;;;;4956360;28;20038;-68
2022/11/24 04:52:54;;;;;;;16.60;3.35;;;6.60;99.90;;;;;;4973330;28;20108;-68
2022/11/24 04:55:20;;;;;;;15.10;3.80;;;6.60;99.90;;;;;;4956253;28;20130;-68
2022/11/24 04:57:46;;;;;;;16.20;4.90;;;6.50;99.90;;;;;;4955884;28;20057;-68
2022/11/24 05:00:12;;;;;;;13.25;3.13;;;6.50;99.90;;;;;;4972982;28;20137;-68
2022/11/24 05:02:38;;;;;;;18.25;3.67;;;6.50;99.90;;;;;;4955929;28;20449;-68
2022/11/24 05:05:05;;;;;;;15.68;3.30;;;6.50;99.90;;;;;;4973233;28;20121;-68
2022/11/24 05:07:31;;;;;;;19.67;3.20;;;6.50;99.90;;;;;;4955771;28;20043;-68
2022/11/24 05:12:41;;;;;;;14.50;4.30;;;6.50;99.90;;;;;;4973064;28;20050;-68
2022/11/24 05:15:08;;;;;;;18.00;3.28;;;6.50;99.90;;;;;;4972493;28;20385;-68
2022/11/24 05:17:37;;;;;;;19.30;4.20;;;6.50;99.90;;;;;;4955543;28;20047;-68
2022/11/24 05:20:04;;;;;;;15.40;3.45;;;6.50;99.90;;;;;;4955236;28;20118;-68
2022/11/24 05:22:30;;;;;;;16.83;3.67;;;6.50;99.90;;;;;;4955314;28;20050;-68
2022/11/24 05:24:56;;;;;;;17.13;5.00;;;6.60;99.90;;;;;;4972905;28;20039;-68
2022/11/24 05:27:22;;;;;;;22.00;4.20;;;6.50;99.90;;;;;;4972862;28;20043;-68
2022/11/24 05:29:48;;;;;;;15.70;3.38;;;6.60;99.90;;;;;;4955032;28;20127;-69
2022/11/24 05:32:14;;;;;;;16.10;3.10;;;6.60;99.90;;;;;;4972606;28;20114;-68
2022/11/24 05:34:40;;;;;;;18.40;3.05;;;6.60;99.90;;;;;;4955259;28;20043;-69
2022/11/24 05:37:07;;;;;;;16.10;3.50;;;6.60;99.90;;;;;;4955238;28;20049;-69
2022/11/24 05:39:34;;;;;;;12.57;3.50;;;6.60;99.90;;;;;;4972696;28;20427;-68
2022/11/24 05:44:49;;;;;;;17.67;3.80;;;6.60;99.90;;;;;;4955419;28;20066;-68
2022/11/24 05:47:15;;;;;;;15.88;4.90;;;6.60;99.90;;;;;;4955320;28;20042;-69
2022/11/24 05:49:41;;;;;;;20.15;3.10;;;6.60;99.90;;;;;;4955217;28;20393;-68
2022/11/24 05:52:07;;;;;;;18.80;3.53;;;6.60;99.90;;;;;;4972320;28;20380;-68
2022/11/24 05:54:32;;;;;;;10.25;2.70;;;6.60;99.90;;;;;;4954936;28;20107;-68
2022/11/24 05:56:58;;;;;;;15.65;2.45;;;6.60;99.90;;;;;;4954488;28;20042;-68
2022/11/24 05:59:24;;;;;;;18.02;3.05;;;6.70;99.90;;;;;;4955022;28;20038;-68
2022/11/24 06:01:49;;;;;;;15.73;3.42;;;6.70;99.90;;;;;;4971950;28;20519;-68
2022/11/24 06:04:15;;;;;;;13.80;3.45;;;6.70;99.90;;;;;;4972381;28;20070;-68
2022/11/24 06:06:41;;;;;;;10.07;3.58;;;6.70;99.90;;;;;;4972189;28;20039;-68
2022/11/24 06:09:07;;;;;;;17.23;2.97;;;6.80;99.90;;;;;;4954803;28;20039;-68
2022/11/24 06:11:33;;;;;;;15.45;3.40;;;6.80;99.90;;;;;;4971505;28;20497;-68
2022/11/24 06:13:59;;;;;;;16.23;3.17;;;6.80;99.90;;;;;;4954988;28;20061;-68
2022/11/24 06:16:24;;;;;;;17.88;4.45;;;6.70;99.90;;;;;;4971976;28;20042;-68
2022/11/24 06:18:50;;;;;;;9.95;2.47;;;6.70;99.90;;;;;;4971994;28;20046;-68
2022/11/24 06:21:16;;;;;;;13.35;2.67;;;6.70;99.90;;;;;;4954531;28;20086;-68
2022/11/24 06:23:42;;;;;;;14.93;3.70;;;6.70;99.90;;;;;;4972039;28;20086;-68
2022/11/24 06:26:08;;;;;;;11.38;3.05;;;6.70;99.90;;;;;;4954299;28;20476;-68
2022/11/24 06:28:34;;;;;;;12.57;3.13;;;6.80;99.90;;;;;;4954576;28;20042;-68
2022/11/24 06:31:02;;;;;;;12.55;2.97;;;6.90;99.90;;;;;;4970811;28;20035;-68
2022/11/24 06:33:33;;;;;;;17.58;3.67;;;6.90;99.90;;;;;;4954468;28;20043;-68
2022/11/24 06:36:07;;;;;;;11.63;3.15;;;6.90;99.90;;;;;;4938648;28;20054;-68
2022/11/24 06:38:34;;;;;;;16.17;2.85;;;6.90;99.90;;;;;;4954562;28;20059;-68
2022/11/24 06:41:06;;;;;;;12.32;3.30;;;6.90;99.90;;;;;;4971405;28;20133;-68
2022/11/24 06:43:32;;;;;;;20.23;4.15;;;6.90;99.90;;;;;;4972063;28;20141;-68
2022/11/24 06:45:59;;;;;;;12.70;3.63;;;6.90;99.90;;;;;;4954415;28;20056;-68
2022/11/24 06:48:26;;;;;;;19.17;3.55;;;6.90;99.90;;;;;;4971733;28;20121;-68
2022/11/24 06:50:52;;;;;;;12.55;3.67;;;6.90;99.90;;;;;;4938369;28;20046;-68
2022/11/24 06:53:18;;;;;;;13.95;3.72;;;7.00;99.90;;;;;;4938283;28;20043;-68
2022/11/24 06:55:45;;;;;;;13.45;4.18;;;7.00;99.90;;;;;;4971260;28;20047;-68
2022/11/24 06:58:12;;;;;;;13.50;3.80;;;7.00;99.90;;;;;;4971784;28;20041;-68
2022/11/24 07:00:38;;;;;;;16.75;3.90;;;7.10;99.90;;;;;;4971786;28;20432;-68
2022/11/24 07:03:04;;;;;;;14.50;3.70;;;7.10;99.90;;;;;;4971674;28;20039;-68
2022/11/24 07:05:29;;;;;;;15.10;4.22;;;7.20;99.90;;;;;;4954087;28;20054;-68
2022/11/24 07:07:57;;;;;;;13.15;4.82;;;7.20;99.90;;;;;;4971475;28;20074;-68
2022/11/24 07:10:23;;;;;;;12.55;3.53;;;7.20;99.90;;;;;;4970912;28;20046;-68
2022/11/24 07:12:49;;;;;;;16.73;3.85;;;7.20;99.90;;;;;;4938056;28;20059;-68
2022/11/24 07:15:15;;;;;;;13.45;4.78;;;7.20;99.90;;;;;;4954319;28;20134;-68
2022/11/24 07:17:40;;;;;;;16.15;4.15;;;7.10;99.90;;;;;;4954212;28;20550;-68
2022/11/24 07:20:07;;;;;;;12.10;3.53;;;7.10;99.90;;;;;;4971435;28;20046;-68
2022/11/24 07:22:33;;;;;;;17.33;3.83;;;7.10;99.90;;;;;;4954029;28;20047;-68
2022/11/24 07:24:59;;;;;;;14.30;3.83;;;7.00;99.90;;;;;;4970912;28;20035;-69
2022/11/24 07:27:29;;;;;;;11.70;4.65;;;7.00;99.90;;;;;;4971333;28;20110;-68
2022/11/24 07:29:55;;;;;;;14.65;4.93;;;6.90;99.90;;;;;;4954251;28;20361;-69
2022/11/24 07:32:20;;;;;;;16.50;4.38;;;7.00;99.90;;;;;;4938336;28;20054;-68
2022/11/24 07:34:46;;;;;;;13.25;3.90;;;6.90;99.90;;;;;;4971175;28;20556;-68
2022/11/24 07:37:12;;;;;;;14.93;4.50;;;6.90;99.90;;;;;;4971261;28;20035;-69
2022/11/24 07:39:37;;;;;;;18.05;4.82;;;6.90;99.90;;;;;;4953472;28;20045;-69
2022/11/24 07:42:04;;;;;;;14.00;4.70;;;6.90;99.90;;;;;;4954738;28;20046;-68
2022/11/24 07:44:30;;;;;;;13.80;4.65;;;6.80;99.90;;;;;;4957639;28;20097;-68
2022/11/24 07:46:56;;;;;;;17.08;4.97;;;6.90;99.90;;;;;;4974705;28;20484;-68
2022/11/24 07:49:21;;;;;;;16.02;4.63;;;6.90;99.90;;;;;;4973940;28;20421;-68
2022/11/24 07:51:47;;;;;;;13.82;5.50;;;6.80;99.90;;;;;;4956969;28;20050;-68
2022/11/24 07:54:13;;;;;;;17.17;5.18;;;6.90;99.90;;;;;;4973150;28;20049;-69
2022/11/24 07:56:39;;;;;;;11.18;5.40;;;6.90;99.90;;;;;;4956672;28;20047;-68
2022/11/24 07:59:05;;;;;;;16.45;7.05;;;6.90;99.90;;;;;;4974098;28;20051;-69
2022/11/24 08:01:31;;;;;;;18.35;5.65;;;6.90;99.90;;;;;;4955698;28;20046;-68
2022/11/24 08:03:59;;;;;;;14.13;5.13;;;6.90;99.90;;;;;;4957121;28;20047;-68
2022/11/24 08:06:28;;;;;;;14.77;6.25;;;6.90;99.90;;;;;;4974225;28;20490;-68
2022/11/24 08:08:54;;;;;;;12.93;4.20;;;7.00;99.90;;;;;;4956482;28;20050;-68
2022/11/24 08:11:20;;;;;;;12.50;4.57;;;7.10;99.90;;;;;;4956803;28;20061;-68
2022/11/24 08:13:46;;;;;;;10.27;4.53;;;7.20;99.90;;;;;;4956207;28;20055;-68
2022/11/24 08:16:15;;;;;;;11.00;4.65;;;7.30;99.90;;;;;;4956768;28;20039;-68
2022/11/24 08:18:41;;;;;;;13.55;4.95;;;7.40;99.90;;;;;;4974165;28;20039;-69
2022/11/24 08:21:10;;;;;;;13.60;4.35;;;7.60;99.90;;;;;;4954923;28;20433;-68
2022/11/24 08:23:36;;;;;;;10.60;3.95;;;7.90;99.90;;;;;;4973439;28;20050;-69
2022/11/24 08:26:09;;;;;;;13.90;4.97;;;8.10;99.90;;;;;;4956491;28;20038;-68
2022/11/24 08:28:36;;;;;;;8.00;3.88;;;8.40;99.90;;;;;;4956505;28;20046;-68
2022/11/24 08:31:08;;;;;;;10.20;3.70;;;8.50;99.90;;;;;;4973720;28;20393;-68
2022/11/24 08:33:34;;;;;;;6.63;3.90;;;8.50;99.90;;;;;;4972843;28;20628;-68
2022/11/24 08:36:11;;;;;;;9.45;4.22;;;8.40;99.90;;;;;;4937280;29;20039;-68
2022/11/24 08:38:38;;;;;;;8.48;3.70;;;8.40;99.90;;;;;;4936674;29;20059;-68
2022/11/24 08:41:09;;;;;;;17.05;4.20;;;8.30;99.90;;;;;;4937068;29;20043;-68
2022/11/24 08:43:36;;;;;;;7.63;3.28;;;8.20;99.90;;;;;;4937112;29;20043;-68
2022/11/24 08:46:05;;;;;;;10.45;2.95;;;8.10;99.90;;;;;;4954247;29;20046;-69
2022/11/24 08:48:31;;;;;;;9.15;3.08;;;8.10;99.90;;;;;;4937246;29;20139;-68
2022/11/24 08:50:58;;;;;;;8.57;2.70;;;8.10;99.90;;;;;;4936485;29;20126;-69
2022/11/24 08:53:24;;;;;;;6.30;2.97;;;8.10;99.90;;;;;;4936409;29;20035;-67
2022/11/24 08:55:50;;;;;;;10.50;3.25;;;8.10;99.90;;;;;;4954004;29;20458;-68
2022/11/24 08:58:16;;;;;;;7.10;2.58;;;8.20;99.90;;;;;;4937064;29;20682;-68
2022/11/24 09:00:43;;;;;;;10.82;3.97;;;8.20;99.90;;;;;;4920870;29;20051;-68
2022/11/24 09:03:10;;;;;;;7.35;2.55;;;8.30;99.90;;;;;;4956566;28;20050;-68
2022/11/24 09:05:36;;;;;;;10.05;3.00;;;8.30;99.90;;;;;;4972465;28;20043;-68
2022/11/24 09:08:02;;;;;;;10.07;4.07;;;8.30;99.90;;;;;;4955393;28;20193;-68
2022/11/24 09:10:28;;;;;;;8.15;2.25;;;8.30;99.90;;;;;;4972561;28;20177;-68
2022/11/24 09:12:54;;;;;;;8.55;2.33;;;8.40;99.90;;;;;;4954708;28;20097;-68
2022/11/24 09:15:19;;;;;;;6.50;2.38;;;8.40;99.90;;;;;;4971907;28;20409;-69
2022/11/24 09:17:45;;;;;;;6.60;2.10;;;8.50;99.90;;;;;;4938617;28;20500;-68
2022/11/24 09:20:11;;;;;;;6.53;2.58;;;9.00;99.90;;;;;;4954445;28;20045;-69
2022/11/24 09:22:38;;;;;;;5.43;1.92;;;9.90;99.90;;;;;;4954401;28;20078;-69
2022/11/24 09:25:05;;;;;;;6.82;1.83;;;10.90;99.90;;;;;;4971987;28;20047;-68
2022/11/24 09:27:31;;;;;;;4.05;1.77;;;11.80;99.90;;;;;;4972110;28;20035;-68
2022/11/24 09:29:57;;;;;;;6.30;1.85;;;12.60;99.90;;;;;;4951730;28;20039;-68
2022/11/24 09:32:23;;;;;;;3.40;1.30;;;13.40;99.90;;;;;;4954749;28;20047;-68
2022/11/24 09:34:51;;;;;;;6.28;1.52;;;13.90;99.90;;;;;;4971849;28;20074;-68
2022/11/24 09:37:17;;;;;;;3.97;1.50;;;14.10;99.90;;;;;;4972324;28;20050;-68
2022/11/24 09:39:43;;;;;;;3.47;1.70;;;14.30;99.90;;;;;;4954884;28;20038;-68
2022/11/24 09:42:28;;;;;;;4.97;1.15;;;14.50;99.90;;;;;;4954671;28;20045;-68
2022/11/24 09:45:39;;;;;;;4.18;1.40;;;14.80;99.90;;;;;;4954941;28;20054;-68
2022/11/24 09:48:29;;;;;;;4.70;1.77;;;14.90;99.90;;;;;;4874391;29;20045;-68
2022/11/24 09:50:58;;;;;;;3.38;1.42;;;14.90;99.90;;;;;;4874123;29;20060;-67
2022/11/24 09:53:38;;;;;;;3.83;1.40;;;15.10;99.90;;;;;;4859502;29;20206;-68
2022/11/24 09:56:27;;;;;;;4.13;1.57;;;15.20;99.90;;;;;;4859197;29;20052;-68
2022/11/24 09:58:55;;;;;;;7.40;2.10;;;15.50;99.90;;;;;;4874572;29;20072;-68
2022/11/24 10:01:38;;;;;;;5.80;1.92;;;15.80;99.90;;;;;;4858786;29;20887;-68
2022/11/24 10:04:19;;;;;;;4.93;2.25;;;16.20;99.90;;;;;;4858547;29;20559;-68
2022/11/24 10:07:10;;;;;;;8.07;2.90;;;16.40;99.90;;;;;;4858895;29;20576;-68
2022/11/24 10:09:54;;;;;;;6.22;2.45;;;16.60;99.90;;;;;;4858916;29;20104;-69
2022/11/24 10:12:47;;;;;;;4.72;2.13;;;16.90;99.90;;;;;;4858733;29;20061;-69
2022/11/24 10:15:43;;;;;;;5.85;2.17;;;17.20;99.90;;;;;;4858868;29;20045;-69
2022/11/24 10:18:26;;;;;;;5.82;2.45;;;17.50;99.90;;;;;;4874045;29;20128;-68
2022/11/24 10:21:25;;;;;;;5.07;2.53;;;17.60;99.90;;;;;;4858992;29;20041;-69
2022/11/24 10:24:19;;;;;;;4.60;2.58;;;17.80;99.90;;;;;;4954624;28;20047;-68
2022/11/24 10:26:55;;;;;;;7.28;2.63;;;18.00;99.90;;;;;;4971831;28;20109;-69
2022/11/24 10:29:29;;;;;;;8.25;2.92;;;18.10;99.90;;;;;;4971634;28;20038;-69
2022/11/24 10:31:55;;;;;;;7.07;2.92;;;18.10;99.90;;;;;;4954291;28;20078;-69
2022/11/24 10:34:28;;;;;;;6.78;2.88;;;18.30;99.90;;;;;;4953800;28;20097;-69
2022/11/24 10:37:12;;;;;;;6.97;3.28;;;18.50;99.90;;;;;;4971810;28;20086;-69
2022/11/24 10:39:50;;;;;;;5.47;2.47;;;18.50;99.90;;;;;;4954191;28;20054;-68
2022/11/24 10:42:29;;;;;;;8.48;2.97;;;18.60;99.90;;;;;;4953988;28;20505;-69
2022/11/24 10:45:08;;;;;;;8.50;2.70;;;18.70;99.90;;;;;;4954322;28;20046;-69
2022/11/24 10:47:34;;;;;;;8.88;3.20;;;18.50;99.90;;;;;;4937621;28;20130;-68
2022/11/24 10:50:03;;;;;;;6.72;2.88;;;17.80;99.90;;;;;;4953953;28;20062;-68
2022/11/24 10:52:36;;;;;;;7.40;2.85;;;16.90;99.90;;;;;;4971224;28;20051;-69
2022/11/24 10:55:05;;;;;;;8.07;3.03;;;16.40;99.90;;;;;;4971345;28;20074;-69
2022/11/24 10:57:33;;;;;;;6.00;2.65;;;16.10;99.90;;;;;;4953913;28;20070;-68
2022/11/24 11:00:21;;;;;;;9.00;2.90;;;16.00;99.90;;;;;;4945853;28;20043;-68
2022/11/24 11:02:52;;;;;;;10.20;2.95;;;16.20;99.90;;;;;;4970385;28;20462;-68
2022/11/24 11:05:42;;;;;;;9.98;3.03;;;16.60;99.90;;;;;;4937616;28;20147;-68
2022/11/24 11:08:30;;;;;;;7.72;2.50;;;16.70;99.90;;;;;;4971185;28;20587;-68
2022/11/24 11:11:27;;;;;;;8.70;2.72;;;16.70;99.90;;;;;;4970952;28;20050;-68
2022/11/24 11:14:07;;;;;;;7.78;3.03;;;16.30;99.90;;;;;;4931683;29;20052;-68
2022/11/24 11:16:52;;;;;;;7.45;3.50;;;15.90;99.90;;;;;;4931835;29;20489;-68
2022/11/24 11:19:46;;;;;;;10.05;3.25;;;15.60;99.90;;;;;;4935438;29;20039;-68
2022/11/24 11:22:37;;;;;;;9.55;3.60;;;15.50;99.90;;;;;;4935906;29;20549;-68
2022/11/24 11:25:42;;;;;;;9.93;3.28;;;15.30;99.90;;;;;;4935361;29;20039;-68
2022/11/24 11:28:18;;;;;;;6.45;2.55;;;15.20;99.90;;;;;;4931058;29;20394;-69
2022/11/24 11:31:04;;;;;;;9.38;3.00;;;14.90;99.90;;;;;;4934701;29;20053;-68
2022/11/24 11:34:05;;;;;;;8.00;3.03;;;14.60;99.90;;;;;;4934304;29;20126;-68
2022/11/24 11:36:45;;;;;;;8.65;3.10;;;14.30;99.90;;;;;;4927328;29;20485;-68
2022/11/24 11:39:45;;;;;;;8.20;3.13;;;14.10;99.90;;;;;;4934793;29;20118;-68
2022/11/24 11:42:55;;;;;;;8.48;2.78;;;13.90;99.90;;;;;;4932782;29;20494;-68
2022/11/24 11:45:42;;;;;;;10.20;2.80;;;13.70;99.90;;;;;;4860940;29;20075;-68
2022/11/24 11:48:29;;;;;;;10.70;2.95;;;13.40;99.90;;;;;;4876484;29;20056;-68
2022/11/24 11:51:25;;;;;;;7.47;2.70;;;13.70;99.90;;;;;;4861188;29;20096;-68
2022/11/24 11:54:12;;;;;;;11.73;2.75;;;14.30;99.90;;;;;;4873281;29;20069;-68
2022/11/24 11:57:01;;;;;;;11.77;2.83;;;14.40;99.90;;;;;;4854550;29;20100;-68
2022/11/24 12:00:01;;;;;;;9.45;3.25;;;14.10;99.90;;;;;;4875282;29;20060;-68
2022/11/24 12:02:55;;;;;;;9.48;3.22;;;13.90;99.90;;;;;;4860537;29;20152;-68
2022/11/24 12:05:36;;;;;;;8.07;2.75;;;13.70;99.90;;;;;;4876360;29;20170;-68
2022/11/24 12:08:32;;;;;;;11.60;2.60;;;13.80;99.90;;;;;;4876495;29;20041;-68
2022/11/24 12:11:43;;;;;;;9.20;2.85;;;13.70;99.90;;;;;;4876097;29;20412;-68
2022/11/24 12:14:23;;;;;;;11.82;3.42;;;13.40;99.90;;;;;;4891438;29;20515;-68
2022/11/24 12:17:31;;;;;;;10.63;3.22;;;13.10;99.90;;;;;;4878521;29;20059;-68
2022/11/24 12:20:43;;;;;;;13.82;3.40;;;12.80;99.90;;;;;;4926010;29;20052;-68
2022/11/24 12:23:31;;;;;;;7.40;1.95;;;12.60;99.90;;;;;;4935192;29;20083;-68
2022/11/24 12:26:30;;;;;;;9.68;2.38;;;12.50;99.90;;;;;;4949585;29;20130;-68
2022/11/24 12:29:13;;;;;;;9.07;2.72;;;12.40;99.90;;;;;;4934592;29;20047;-68
2022/11/24 12:32:02;;;;;;;13.57;2.85;;;12.30;99.90;;;;;;4935235;29;20123;-68
2022/11/24 12:34:54;;;;;;;12.95;2.40;;;12.20;99.90;;;;;;4949752;29;20051;-68
2022/11/24 12:37:31;;;;;;;10.18;2.47;;;12.20;99.90;;;;;;4949862;29;20601;-68
2022/11/24 12:40:24;;;;;;;14.82;2.53;;;12.10;99.90;;;;;;4935002;29;20098;-68
2022/11/24 12:43:11;;;;;;;14.77;3.33;;;12.10;99.90;;;;;;4933532;29;20545;-68
2022/11/24 12:46:04;;;;;;;9.80;2.38;;;12.00;99.90;;;;;;4934615;29;20071;-69
2022/11/24 12:48:53;;;;;;;11.60;2.20;;;12.00;99.90;;;;;;4949164;29;20451;-68
2022/11/24 12:51:43;;;;;;;15.48;3.03;;;11.90;99.90;;;;;;4949054;29;20043;-68
2022/11/24 12:54:21;;;;;;;;;;;11.80;99.90;;;;;;4948010;29;20039;-67
2022/11/24 12:57:10;;;;;;;9.43;2.53;;;11.80;99.90;;;;;;4933389;29;19925;-67
2022/11/24 12:59:56;;;;;;;9.57;2.83;;;11.80;99.90;;;;;;4933776;29;20494;-68
2022/11/24 13:03:06;;;;;;;12.55;2.78;;;11.80;99.90;;;;;;4917619;29;20483;-68
2022/11/24 13:05:53;;;;;;;15.00;2.92;;;11.70;99.90;;;;;;4934241;29;20047;-67
2022/11/24 13:08:30;;;;;;;13.85;3.45;;;11.60;99.90;;;;;;4948788;29;20047;-68
2022/11/24 13:11:26;;;;;;;10.27;2.90;;;11.50;99.90;;;;;;4934121;29;20046;-67
2022/11/24 13:14:15;;;;;;;15.07;3.30;;;11.40;99.90;;;;;;4936115;28;20803;-67
2022/11/24 13:17:01;;;;;;;16.77;3.00;;;11.40;99.90;;;;;;4954954;28;20127;-68